Accueil
METAR-TAF:

METAR-TAF

Aéroports :

Lanvéoc, France

Base d'aéronautique navale de Lanvéoc-Poulmic

latitude: 48-17N, longitude: 004-26W, altitude: 87 m

Observation

Le bulletin a été fait il y a 29 minutes, à 10:00 UTC
Vent 7 kt de est/nord-est, variant entre nord/nord-est et est
Température 5°C
Humidité 65%
Pression 1020 hPa
Visibilité: 9000 m

METAR: LFRL 221000Z AUTO 07007KT 030V100 9000 NSC 05/M01 Q1020 NOSIG

Heure: 11:29 (10:29 UTC)

Prévision

Le bulletin a été fait il y a 2 heures et 29 minutes, à 08:00 UTC
Prévision valable du 22 à 09 UTC au 22 à 18 UTC
Vent 8 kt de est/nord-est
Visibilité 10 km ou plus
pas de nuages en-dessous de 1500 mètres et pas de cumulonimbus.

TAF: LFRL 220800Z 2209/2218 06008KT CAVOK

Observations et prévisions météorologiques de plus de 4000 aéroports (messages METAR et TAF).

Les stations disponibles sont représentées par des disques jaunes et rouges sur la carte.

Passer la souris dessus pour voir le nom de la station.

Cliquer dessus pour voir les observations et prévisions météorologiques.

Pour changer de carte: cliquez sur les boutons verts avec une croix noire pour zoomer, sur le bouton vert avec un tiret pour effectuer un zoom arrière, ou sur les flèches vertes pour les cartes adjacentes.


METAR-TAF: